createdAt,value
2022-10-07T00:00:56.728Z,17.60
2022-10-07T00:03:25.977Z,17.50
2022-10-07T00:06:16.874Z,17.50
2022-10-07T00:08:50.794Z,17.50
2022-10-07T00:11:24.831Z,17.50
2022-10-07T00:13:57.071Z,17.40
2022-10-07T00:16:28.121Z,17.40
2022-10-07T00:18:57.581Z,17.40
2022-10-07T00:21:27.565Z,17.40
2022-10-07T00:23:55.087Z,17.30
2022-10-07T00:26:27.494Z,17.30
2022-10-07T00:28:54.553Z,17.30
2022-10-07T00:31:25.393Z,17.40
2022-10-07T00:33:53.707Z,17.40
2022-10-07T00:36:27.225Z,17.40
2022-10-07T00:39:05.641Z,17.40
2022-10-07T00:41:37.533Z,17.30
2022-10-07T00:44:31.938Z,17.40
2022-10-07T00:47:11.734Z,17.30
2022-10-07T00:50:09.520Z,17.30
2022-10-07T00:52:49.465Z,17.30
2022-10-07T00:55:25.068Z,17.20
2022-10-07T00:57:57.237Z,17.30
2022-10-07T01:00:24.221Z,17.20
2022-10-07T01:02:52.369Z,17.20
2022-10-07T01:05:20.363Z,17.20
2022-10-07T01:07:50.596Z,17.20
2022-10-07T01:10:21.689Z,17.20
2022-10-07T01:13:07.198Z,17.20
2022-10-07T01:15:44.618Z,17.20
2022-10-07T01:18:52.800Z,17.20
2022-10-07T01:21:54.484Z,17.20
2022-10-07T01:24:42.226Z,17.20
2022-10-07T01:27:36.838Z,17.20
2022-10-07T01:30:07.653Z,17.10
2022-10-07T01:32:41.701Z,17.00
2022-10-07T01:35:18.138Z,17.00
2022-10-07T01:37:55.679Z,16.90
2022-10-07T01:40:32.047Z,16.80
2022-10-07T01:43:00.409Z,16.70
2022-10-07T01:45:30.998Z,16.70
2022-10-07T01:47:59.290Z,16.60
2022-10-07T01:50:30.073Z,16.50
2022-10-07T01:53:26.609Z,16.40
2022-10-07T01:56:27.254Z,16.40
2022-10-07T01:59:12.698Z,16.30
2022-10-07T02:01:55.019Z,16.20
2022-10-07T02:05:09.673Z,16.10
2022-10-07T02:08:10.007Z,16.10
2022-10-07T02:11:10.236Z,16.00
2022-10-07T02:13:55.919Z,15.90
2022-10-07T02:16:35.332Z,15.80
2022-10-07T02:19:11.133Z,15.80
2022-10-07T02:21:40.760Z,15.70
2022-10-07T02:24:12.110Z,15.70
2022-10-07T02:26:43.540Z,15.60
2022-10-07T02:29:13.577Z,15.60
2022-10-07T02:31:43.284Z,15.60
2022-10-07T02:34:20.020Z,15.50
2022-10-07T02:36:55.952Z,15.50
2022-10-07T02:39:22.802Z,15.40
2022-10-07T02:42:04.960Z,15.40
2022-10-07T02:44:42.942Z,15.40
2022-10-07T02:47:40.607Z,15.40
2022-10-07T02:50:13.666Z,15.30
2022-10-07T02:52:44.873Z,15.30
2022-10-07T02:55:19.185Z,15.20
2022-10-07T02:57:53.414Z,15.20
2022-10-07T03:00:20.487Z,15.20
2022-10-07T03:02:58.155Z,15.20
2022-10-07T03:05:26.363Z,15.10
2022-10-07T03:07:59.323Z,15.00
2022-10-07T03:10:26.904Z,15.00
2022-10-07T03:12:53.926Z,15.00
2022-10-07T03:15:22.277Z,14.90
2022-10-07T03:17:49.193Z,14.80
2022-10-07T03:20:16.534Z,14.80
2022-10-07T03:22:44.710Z,14.80
2022-10-07T03:25:12.787Z,14.80
2022-10-07T03:27:40.249Z,14.70
2022-10-07T03:30:08.214Z,14.60
2022-10-07T03:32:35.202Z,14.60
2022-10-07T03:35:02.034Z,14.60
2022-10-07T03:37:30.167Z,14.50
2022-10-07T03:39:56.991Z,14.50
2022-10-07T03:42:24.151Z,14.50
2022-10-07T03:44:52.290Z,14.40
2022-10-07T03:47:19.185Z,14.30
2022-10-07T03:49:45.968Z,14.40
2022-10-07T03:52:12.857Z,14.30
2022-10-07T03:54:39.687Z,14.30
2022-10-07T03:57:26.467Z,14.30
2022-10-07T03:59:53.576Z,14.20
2022-10-07T04:02:25.351Z,14.20
2022-10-07T04:04:54.708Z,14.20
2022-10-07T04:07:22.124Z,14.10
2022-10-07T04:09:49.190Z,14.10
2022-10-07T04:12:16.343Z,14.00
2022-10-07T04:14:43.211Z,14.00
2022-10-07T04:17:10.039Z,14.00
2022-10-07T04:19:37.128Z,14.00
2022-10-07T04:22:08.944Z,13.90
2022-10-07T04:24:36.423Z,13.90
2022-10-07T04:27:07.230Z,13.90
2022-10-07T04:29:38.991Z,13.80
2022-10-07T04:32:06.168Z,13.80
2022-10-07T04:34:32.983Z,13.80
2022-10-07T04:37:01.146Z,13.70
2022-10-07T04:39:48.985Z,13.70
2022-10-07T04:42:33.708Z,13.70
2022-10-07T04:45:00.498Z,13.70
2022-10-07T04:47:27.284Z,13.60
2022-10-07T04:49:54.366Z,13.60
2022-10-07T04:52:21.191Z,13.60
2022-10-07T04:54:47.985Z,13.50
2022-10-07T04:57:14.795Z,13.50
2022-10-07T04:59:42.971Z,13.40
2022-10-07T05:02:10.216Z,13.50
2022-10-07T05:04:37.112Z,13.40
2022-10-07T05:07:04.704Z,13.40
2022-10-07T05:09:31.475Z,13.50
2022-10-07T05:11:58.398Z,13.50
2022-10-07T05:14:25.233Z,13.50
2022-10-07T05:16:52.692Z,13.60
2022-10-07T05:19:20.098Z,13.60
2022-10-07T05:21:46.998Z,13.60
2022-10-07T05:24:13.814Z,13.70
2022-10-07T05:26:40.633Z,13.70
2022-10-07T05:29:07.508Z,13.70
2022-10-07T05:31:34.340Z,13.80
2022-10-07T05:34:02.891Z,13.80
2022-10-07T05:36:30.002Z,13.80
2022-10-07T05:39:00.142Z,13.90
2022-10-07T05:41:30.078Z,13.90
2022-10-07T05:43:56.983Z,13.90
2022-10-07T05:46:23.956Z,14.00
2022-10-07T05:48:53.588Z,14.10
2022-10-07T05:51:23.007Z,14.10
2022-10-07T05:53:54.509Z,14.20
2022-10-07T05:56:21.849Z,14.20
2022-10-07T05:58:50.278Z,14.30
2022-10-07T06:01:21.137Z,14.30
2022-10-07T06:03:57.182Z,14.40
2022-10-07T06:06:25.919Z,14.50
2022-10-07T06:08:53.665Z,14.50
2022-10-07T06:11:39.847Z,14.50
2022-10-07T06:14:07.178Z,14.60
2022-10-07T06:16:34.099Z,14.60
2022-10-07T06:19:01.022Z,14.70
2022-10-07T06:21:28.441Z,14.70
2022-10-07T06:23:57.864Z,14.80
2022-10-07T06:26:24.843Z,14.90
2022-10-07T06:28:51.721Z,14.90
2022-10-07T06:31:22.664Z,15.00
2022-10-07T06:33:50.780Z,15.00
2022-10-07T06:36:18.632Z,15.10
2022-10-07T06:38:50.927Z,15.10
2022-10-07T06:41:18.634Z,15.10
2022-10-07T06:43:46.023Z,15.20
2022-10-07T06:46:19.356Z,15.20
2022-10-07T06:48:47.071Z,15.20
2022-10-07T06:51:20.480Z,15.30
2022-10-07T06:53:53.506Z,15.30
2022-10-07T06:56:20.957Z,15.30
2022-10-07T06:58:49.793Z,15.40
2022-10-07T07:01:17.334Z,15.40
2022-10-07T07:03:44.207Z,15.40
2022-10-07T07:06:11.226Z,15.40
2022-10-07T07:08:41.057Z,15.50
2022-10-07T07:11:31.100Z,15.50
2022-10-07T07:13:58.903Z,15.60
2022-10-07T07:16:26.132Z,15.70
2022-10-07T07:18:59.541Z,15.70
2022-10-07T07:21:28.800Z,15.70
2022-10-07T07:23:56.295Z,15.80
2022-10-07T07:26:23.701Z,15.80
2022-10-07T07:28:59.425Z,15.80
2022-10-07T07:31:29.567Z,15.80
2022-10-07T07:34:00.732Z,15.90
2022-10-07T07:36:30.302Z,15.90
2022-10-07T07:39:01.300Z,15.90
2022-10-07T07:41:32.638Z,16.00
2022-10-07T07:44:03.519Z,16.00
2022-10-07T07:46:36.257Z,16.00
2022-10-07T07:49:04.012Z,16.10
2022-10-07T07:51:32.833Z,16.00
2022-10-07T07:53:59.894Z,16.00
2022-10-07T07:56:29.236Z,16.10
2022-10-07T07:58:56.713Z,16.10
2022-10-07T08:01:23.752Z,16.10
2022-10-07T08:03:51.087Z,16.20
2022-10-07T08:06:21.425Z,16.20
2022-10-07T08:08:48.942Z,16.20
2022-10-07T08:11:19.340Z,16.20
2022-10-07T08:13:47.359Z,16.20
2022-10-07T08:16:20.394Z,16.30
2022-10-07T08:18:51.001Z,16.30
2022-10-07T08:21:22.187Z,16.30
2022-10-07T08:23:54.218Z,16.40
2022-10-07T08:26:21.189Z,16.50
2022-10-07T08:28:49.066Z,16.50
2022-10-07T08:31:19.377Z,16.50
2022-10-07T08:33:49.332Z,16.50
2022-10-07T08:36:19.486Z,16.60
2022-10-07T08:38:49.956Z,16.70
2022-10-07T08:41:34.113Z,16.70
2022-10-07T08:44:17.028Z,16.70
2022-10-07T08:47:06.811Z,16.80
2022-10-07T08:50:09.785Z,16.80
2022-10-07T08:52:39.380Z,16.80
2022-10-07T08:55:19.114Z,16.80
2022-10-07T08:57:56.962Z,16.80
2022-10-07T09:00:24.886Z,16.80
2022-10-07T09:03:25.305Z,16.80
2022-10-07T09:05:55.643Z,16.90
2022-10-07T09:08:30.674Z,16.90
2022-10-07T09:11:15.733Z,17.00
2022-10-07T09:13:54.312Z,17.00
2022-10-07T09:16:32.859Z,17.10
2022-10-07T09:19:03.797Z,17.20
2022-10-07T09:21:51.146Z,17.20
2022-10-07T09:24:24.941Z,17.30
2022-10-07T09:26:57.195Z,17.40
2022-10-07T09:29:28.238Z,17.40
2022-10-07T09:31:57.962Z,17.50
2022-10-07T09:34:29.844Z,17.50
2022-10-07T09:37:16.797Z,17.50
2022-10-07T09:39:47.618Z,17.60
2022-10-07T09:42:26.795Z,17.60
2022-10-07T09:44:57.484Z,17.80
2022-10-07T09:47:36.618Z,17.70
2022-10-07T09:50:04.565Z,17.70
2022-10-07T09:52:32.680Z,17.80
2022-10-07T09:55:43.251Z,17.90
2022-10-07T09:58:28.949Z,17.90
2022-10-07T10:01:02.003Z,18.00
2022-10-07T10:03:32.552Z,18.10
2022-10-07T10:06:01.070Z,18.10
2022-10-07T10:08:38.440Z,18.20
2022-10-07T10:11:28.426Z,18.20
2022-10-07T10:13:55.463Z,18.30
2022-10-07T10:16:25.949Z,18.40
2022-10-07T10:19:03.865Z,18.50
2022-10-07T10:21:41.370Z,18.60
2022-10-07T10:24:15.756Z,18.70
2022-10-07T10:27:03.162Z,18.80
2022-10-07T10:30:05.494Z,19.00
2022-10-07T10:33:04.425Z,19.10
2022-10-07T10:36:20.835Z,19.20
2022-10-07T10:39:04.092Z,19.40
2022-10-07T10:41:52.012Z,19.50
2022-10-07T10:44:36.459Z,19.50
2022-10-07T10:47:30.324Z,19.60
2022-10-07T10:50:17.863Z,19.70
2022-10-07T10:52:53.407Z,19.80
2022-10-07T10:55:44.422Z,20.00
2022-10-07T10:58:53.319Z,20.20
2022-10-07T11:02:00.627Z,20.50
2022-10-07T11:04:59.752Z,20.80
2022-10-07T11:08:11.405Z,21.00
2022-10-07T11:10:53.330Z,21.30
2022-10-07T11:13:36.912Z,21.40
2022-10-07T11:16:31.112Z,21.50
2022-10-07T11:19:20.690Z,21.60
2022-10-07T11:21:54.940Z,21.60
2022-10-07T11:24:50.619Z,21.50
2022-10-07T11:27:29.631Z,21.40
2022-10-07T11:30:22.121Z,21.30
2022-10-07T11:33:08.105Z,21.20
2022-10-07T11:35:49.045Z,21.10
2022-10-07T11:38:27.733Z,20.90
2022-10-07T11:41:19.829Z,20.90
2022-10-07T11:43:56.851Z,20.80
2022-10-07T11:46:40.904Z,20.80
2022-10-07T11:49:21.878Z,20.70
2022-10-07T11:52:01.479Z,20.60
2022-10-07T11:54:38.624Z,20.60
2022-10-07T11:57:05.913Z,20.50
2022-10-07T11:59:48.106Z,20.40
2022-10-07T12:02:30.211Z,20.30
2022-10-07T12:05:02.684Z,20.30
2022-10-07T12:07:43.093Z,20.30
2022-10-07T12:10:23.250Z,20.30
2022-10-07T12:12:57.059Z,20.30
2022-10-07T12:15:42.105Z,20.30
2022-10-07T12:18:10.465Z,20.40
2022-10-07T12:20:53.021Z,20.50
2022-10-07T12:23:20.195Z,20.60
2022-10-07T12:26:00.404Z,20.70
2022-10-07T12:28:36.457Z,20.80
2022-10-07T12:31:26.179Z,21.00
2022-10-07T12:33:58.559Z,21.10
2022-10-07T12:36:29.287Z,21.20
2022-10-07T12:38:56.131Z,21.30
2022-10-07T12:41:40.065Z,21.40
2022-10-07T12:44:48.790Z,21.50
2022-10-07T12:47:29.873Z,21.50
2022-10-07T12:50:07.320Z,21.70
2022-10-07T12:52:40.401Z,21.70
2022-10-07T12:55:15.240Z,21.70
2022-10-07T12:57:52.456Z,21.70
2022-10-07T13:00:25.032Z,21.70
2022-10-07T13:03:29.305Z,21.70
2022-10-07T13:06:14.151Z,21.70
2022-10-07T13:09:37.213Z,21.80
2022-10-07T13:12:51.534Z,21.80
2022-10-07T13:15:41.442Z,21.90
2022-10-07T13:18:23.695Z,21.90
2022-10-07T13:21:41.508Z,22.00
2022-10-07T13:24:20.648Z,22.10
2022-10-07T13:26:47.677Z,22.20
2022-10-07T13:29:33.380Z,22.20
2022-10-07T13:32:28.067Z,22.30
2022-10-07T13:34:54.958Z,22.30
2022-10-07T13:37:34.182Z,22.40
2022-10-07T13:40:21.224Z,22.40
2022-10-07T13:43:07.964Z,22.40
2022-10-07T13:45:45.084Z,22.40
2022-10-07T13:48:20.951Z,22.50
2022-10-07T13:50:50.794Z,22.50
2022-10-07T13:53:25.294Z,22.40
2022-10-07T13:56:26.086Z,22.40
2022-10-07T13:58:55.987Z,22.40
2022-10-07T14:01:28.734Z,22.50
2022-10-07T14:04:21.331Z,22.60
2022-10-07T14:07:12.205Z,22.70
2022-10-07T14:09:59.235Z,23.00
2022-10-07T14:12:47.968Z,23.50
2022-10-07T14:15:21.688Z,24.00
2022-10-07T14:18:14.567Z,24.60
2022-10-07T14:20:57.288Z,25.10
2022-10-07T14:23:34.245Z,25.60
2022-10-07T14:26:05.466Z,26.10
2022-10-07T14:28:35.347Z,26.10
2022-10-07T14:31:26.603Z,26.10
2022-10-07T14:34:33.382Z,26.20
2022-10-07T14:37:28.463Z,26.10
2022-10-07T14:39:58.566Z,26.10
2022-10-07T14:42:30.437Z,25.90
2022-10-07T14:44:58.441Z,25.80
2022-10-07T14:47:28.311Z,25.80
2022-10-07T14:49:59.426Z,25.80
2022-10-07T14:52:47.638Z,26.00
2022-10-07T14:55:23.647Z,26.30
2022-10-07T14:57:50.522Z,26.70
2022-10-07T15:00:24.721Z,27.10
2022-10-07T15:02:53.134Z,27.50
2022-10-07T15:05:20.609Z,27.90
2022-10-07T15:07:47.615Z,28.30
2022-10-07T15:10:23.439Z,28.70
2022-10-07T15:12:50.365Z,29.10
2022-10-07T15:15:18.153Z,29.30
2022-10-07T15:17:45.457Z,29.50
2022-10-07T15:20:15.374Z,29.60
2022-10-07T15:22:43.432Z,29.80
2022-10-07T15:25:12.620Z,29.90
2022-10-07T15:27:40.018Z,29.90
2022-10-07T15:30:07.969Z,30.10
2022-10-07T15:32:34.864Z,30.20
2022-10-07T15:35:02.036Z,30.30
2022-10-07T15:37:29.038Z,30.10
2022-10-07T15:39:55.896Z,29.90
2022-10-07T15:42:26.376Z,29.50
2022-10-07T15:44:53.894Z,28.90
2022-10-07T15:47:20.842Z,28.30
2022-10-07T15:49:49.071Z,27.60
2022-10-07T15:52:16.606Z,27.00
2022-10-07T15:54:46.563Z,26.30
2022-10-07T15:57:14.460Z,25.80
2022-10-07T15:59:42.192Z,25.20
2022-10-07T16:02:16.699Z,24.70
2022-10-07T16:04:45.545Z,24.20
2022-10-07T16:07:12.415Z,23.70
2022-10-07T16:09:39.504Z,23.30
2022-10-07T16:12:07.062Z,22.90
2022-10-07T16:14:34.199Z,22.50
2022-10-07T16:17:01.091Z,22.20
2022-10-07T16:19:27.903Z,21.80
2022-10-07T16:21:54.700Z,21.60
2022-10-07T16:24:22.773Z,21.30
2022-10-07T16:26:55.436Z,21.00
2022-10-07T16:29:42.499Z,20.80
2022-10-07T16:32:11.358Z,20.60
2022-10-07T16:34:43.282Z,20.40
2022-10-07T16:37:11.781Z,20.20
2022-10-07T16:39:38.762Z,20.00
2022-10-07T16:42:06.540Z,19.70
2022-10-07T16:44:33.503Z,19.60
2022-10-07T16:47:01.141Z,19.50
2022-10-07T16:49:30.127Z,19.30
2022-10-07T16:51:58.097Z,19.20
2022-10-07T16:54:25.551Z,19.00
2022-10-07T16:56:52.964Z,18.90
2022-10-07T16:59:24.100Z,18.70
2022-10-07T17:01:56.828Z,18.60
2022-10-07T17:04:24.970Z,18.50
2022-10-07T17:06:53.250Z,18.40
2022-10-07T17:09:22.022Z,18.30
2022-10-07T17:11:48.956Z,18.20
2022-10-07T17:14:19.032Z,18.10
2022-10-07T17:16:52.581Z,18.00
2022-10-07T17:19:22.982Z,17.90
2022-10-07T17:21:51.681Z,17.80
2022-10-07T17:24:21.855Z,17.70
2022-10-07T17:26:50.014Z,17.60
2022-10-07T17:29:21.085Z,17.50
2022-10-07T17:31:50.573Z,17.40
2022-10-07T17:34:20.557Z,17.40
2022-10-07T17:36:48.552Z,17.30
2022-10-07T17:39:17.124Z,17.20
2022-10-07T17:41:44.083Z,17.10
2022-10-07T17:44:12.188Z,17.10
2022-10-07T17:46:40.910Z,17.00
2022-10-07T17:49:13.168Z,16.90
2022-10-07T17:51:42.578Z,16.80
2022-10-07T17:54:11.966Z,16.80
2022-10-07T17:56:38.934Z,16.70
2022-10-07T17:59:05.889Z,16.70
2022-10-07T18:01:35.807Z,16.60
2022-10-07T18:04:06.755Z,16.60
2022-10-07T18:06:37.026Z,16.50
2022-10-07T18:09:09.208Z,16.40
2022-10-07T18:11:55.650Z,16.40
2022-10-07T18:14:42.294Z,16.30
2022-10-07T18:17:10.744Z,16.30
2022-10-07T18:19:39.649Z,16.30
2022-10-07T18:22:07.077Z,16.20
2022-10-07T18:24:33.992Z,16.10
2022-10-07T18:27:02.775Z,16.10
2022-10-07T18:29:33.694Z,16.10
2022-10-07T18:32:00.767Z,16.00
2022-10-07T18:34:27.955Z,16.00
2022-10-07T18:36:57.056Z,16.00
2022-10-07T18:39:27.575Z,15.90
2022-10-07T18:41:54.736Z,15.90
2022-10-07T18:44:21.905Z,15.80
2022-10-07T18:46:48.827Z,15.80
2022-10-07T18:49:15.733Z,15.70
2022-10-07T18:51:43.459Z,15.70
2022-10-07T18:54:11.191Z,15.70
2022-10-07T18:56:41.026Z,15.70
2022-10-07T18:59:09.957Z,15.70
2022-10-07T19:01:37.689Z,15.70
2022-10-07T19:04:06.479Z,15.60
2022-10-07T19:06:38.092Z,15.60
2022-10-07T19:09:09.191Z,15.60
2022-10-07T19:11:36.200Z,15.50
2022-10-07T19:14:03.650Z,15.60
2022-10-07T19:16:39.436Z,15.50
2022-10-07T19:19:08.589Z,15.50
2022-10-07T19:21:36.118Z,15.50
2022-10-07T19:24:04.679Z,15.50
2022-10-07T19:26:38.623Z,15.50
2022-10-07T19:29:09.014Z,15.40
2022-10-07T19:31:42.520Z,15.40
2022-10-07T19:34:14.241Z,15.40
2022-10-07T19:36:46.906Z,15.30
2022-10-07T19:39:21.394Z,15.30
2022-10-07T19:41:48.739Z,15.30
2022-10-07T19:44:16.554Z,15.20
2022-10-07T19:46:44.104Z,15.20
2022-10-07T19:49:11.926Z,15.20
2022-10-07T19:51:40.302Z,15.10
2022-10-07T19:54:10.003Z,15.10
2022-10-07T19:56:39.256Z,15.10
2022-10-07T19:59:12.639Z,15.00
2022-10-07T20:01:45.363Z,15.00
2022-10-07T20:04:17.588Z,15.00
2022-10-07T20:06:45.166Z,15.00
2022-10-07T20:09:17.134Z,14.90
2022-10-07T20:11:44.299Z,14.90
2022-10-07T20:14:11.253Z,14.90
2022-10-07T20:16:39.217Z,14.80
2022-10-07T20:19:15.387Z,14.80
2022-10-07T20:21:42.844Z,14.80
2022-10-07T20:24:14.448Z,14.70
2022-10-07T20:26:43.712Z,14.70
2022-10-07T20:29:12.022Z,14.70
2022-10-07T20:31:41.403Z,14.60
2022-10-07T20:34:18.644Z,14.60
2022-10-07T20:36:45.705Z,14.60
2022-10-07T20:39:39.084Z,14.60
2022-10-07T20:42:21.929Z,14.60
2022-10-07T20:44:50.455Z,14.50
2022-10-07T20:47:19.423Z,14.50
2022-10-07T20:49:48.545Z,14.50
2022-10-07T20:52:22.154Z,14.50
2022-10-07T20:54:50.051Z,14.40
2022-10-07T20:57:24.152Z,14.40
2022-10-07T20:59:51.769Z,14.40
2022-10-07T21:02:21.594Z,14.40
2022-10-07T21:04:48.713Z,14.30
2022-10-07T21:07:18.040Z,14.30
2022-10-07T21:09:45.864Z,14.30
2022-10-07T21:12:16.861Z,14.30
2022-10-07T21:14:44.385Z,14.20
2022-10-07T21:17:12.200Z,14.20
2022-10-07T21:19:39.986Z,14.20
2022-10-07T21:22:07.844Z,14.20
2022-10-07T21:24:34.991Z,14.10
2022-10-07T21:27:07.677Z,14.10
2022-10-07T21:29:40.196Z,14.10
2022-10-07T21:32:09.842Z,14.00
2022-10-07T21:34:37.915Z,14.00
2022-10-07T21:37:04.968Z,14.00
2022-10-07T21:39:32.262Z,14.00
2022-10-07T21:41:59.811Z,13.90
2022-10-07T21:44:27.530Z,13.90
2022-10-07T21:46:54.508Z,13.90
2022-10-07T21:49:21.376Z,13.90
2022-10-07T21:51:48.283Z,13.80
2022-10-07T21:54:15.426Z,13.90
2022-10-07T21:56:45.852Z,13.80
2022-10-07T21:59:14.038Z,13.80
2022-10-07T22:01:42.398Z,13.70
2022-10-07T22:04:17.349Z,13.70
2022-10-07T22:07:03.767Z,13.70
2022-10-07T22:09:31.349Z,13.70
2022-10-07T22:11:58.518Z,13.70
2022-10-07T22:14:25.389Z,13.70
2022-10-07T22:16:52.141Z,13.70
2022-10-07T22:19:19.004Z,13.70
2022-10-07T22:21:46.152Z,13.70
2022-10-07T22:24:14.125Z,13.70
2022-10-07T22:26:46.142Z,13.70
2022-10-07T22:29:16.097Z,13.70
2022-10-07T22:31:43.974Z,13.70
2022-10-07T22:34:34.216Z,13.70
2022-10-07T22:37:01.733Z,13.60
2022-10-07T22:39:29.349Z,13.60
2022-10-07T22:41:57.737Z,13.60
2022-10-07T22:44:27.974Z,13.60
2022-10-07T22:46:56.654Z,13.60
2022-10-07T22:49:27.320Z,13.60
2022-10-07T22:51:58.135Z,13.60
2022-10-07T22:54:25.664Z,13.60
2022-10-07T22:56:52.508Z,13.60
2022-10-07T22:59:19.347Z,13.60
2022-10-07T23:01:46.194Z,13.60
2022-10-07T23:04:13.050Z,13.60
2022-10-07T23:06:39.825Z,13.60
2022-10-07T23:09:06.672Z,13.60
2022-10-07T23:11:33.579Z,13.60
2022-10-07T23:14:00.440Z,13.60
2022-10-07T23:16:29.768Z,13.70
2022-10-07T23:18:58.524Z,13.70
2022-10-07T23:21:29.382Z,13.70
2022-10-07T23:24:04.396Z,13.70
2022-10-07T23:26:34.435Z,13.80
2022-10-07T23:29:01.911Z,13.80
2022-10-07T23:31:31.789Z,13.80
2022-10-07T23:34:01.355Z,13.80
2022-10-07T23:36:29.691Z,13.80
2022-10-07T23:38:59.994Z,13.80
2022-10-07T23:41:30.485Z,13.80
2022-10-07T23:44:00.476Z,13.80
2022-10-07T23:46:29.310Z,13.80
2022-10-07T23:48:56.267Z,13.80
2022-10-07T23:51:26.624Z,13.80
2022-10-07T23:53:56.370Z,13.80
2022-10-07T23:56:23.479Z,13.80
2022-10-07T23:58:50.245Z,13.80
